Etusivu
METAR-TAF:

METAR-TAF

Lentoasemat :

Waukegan Regional Airport

Waukegan, Illinois, Yhdysvallat

Leveyspiiri: 42-25N, Pituuspiiri: 087-52W, korkeus merenpinnasta: 222 m

Tämänhetkinen sää

Tämä raportti tehtiin 47 minuuttia sitten, kello 11.55 UTC
Tuuli 3 kn eri suunnista
Lämpötila 7°C
Kosteus 93%
Ilmanpaine 1011 hPa
Näkyvyys: 16.1 km
selkeää

METAR: KUGN 291155Z VRB03KT 10SM CLR 07/06 A2985 RMK AO2 SLP111 70002 T00720061 10094 20072 51011

Aika: 07:42 (12:42 UTC)


TAF: puuttuu

Säähavainnot ja -ennusteet yli 4000 lentoasemalta (METAR- ja TAF-raportit).

Käytössä olevat sääasemat on merkitty karttaan keltaisilla ja punaisilla pisteillä.

Aseta hiiri pisteen päälle nähdäksesi sääaseman nimen.

Klikkaa sitten nähdäksesi säähavainnot ja -ennusteet.

Kartan vaihtaminen: klikkaa mustalla rastilla varustettuja vihreitä pisteitä, niin voit zoomata sisään; viivalla varustettua vihreää pistettä, niin voit zoomata ulos tai vihreitä nuolia, niin pääset viereisille kartoille.


METAR-TAF: